sensor_id;sensor_type;location;lat;lon;timestamp;pressure;altitude;pressure_sealevel;temperature;humidity
68197;BME280;55019;49.382;11.358;2022-12-18T00:01:30;97804.34;;;-10.10;90.06
68197;BME280;55019;49.382;11.358;2022-12-18T00:03:57;97809.44;;;-10.19;89.41
68197;BME280;55019;49.382;11.358;2022-12-18T00:06:24;97811.13;;;-10.24;88.99
68197;BME280;55019;49.382;11.358;2022-12-18T00:08:50;97816.16;;;-10.27;89.24
68197;BME280;55019;49.382;11.358;2022-12-18T00:11:22;97809.53;;;-10.38;88.41
68197;BME280;55019;49.382;11.358;2022-12-18T00:13:48;97817.78;;;-10.24;88.58
68197;BME280;55019;49.382;11.358;2022-12-18T00:16:16;97825.25;;;-10.21;88.46
68197;BME280;55019;49.382;11.358;2022-12-18T00:18:46;97826.13;;;-10.27;88.06
68197;BME280;55019;49.382;11.358;2022-12-18T00:21:13;97835.31;;;-10.30;88.68
68197;BME280;55019;49.382;11.358;2022-12-18T00:23:40;97831.19;;;-10.36;90.34
68197;BME280;55019;49.382;11.358;2022-12-18T00:26:09;97825.34;;;-10.36;90.51
68197;BME280;55019;49.382;11.358;2022-12-18T00:28:35;97821.19;;;-10.36;90.64
68197;BME280;55019;49.382;11.358;2022-12-18T00:31:06;97834.50;;;-10.31;90.33
68197;BME280;55019;49.382;11.358;2022-12-18T00:33:32;97827.03;;;-10.34;90.43
68197;BME280;55019;49.382;11.358;2022-12-18T00:36:05;97816.25;;;-10.42;90.27
68197;BME280;55019;49.382;11.358;2022-12-18T00:38:32;97811.25;;;-10.42;90.44
68197;BME280;55019;49.382;11.358;2022-12-18T00:40:57;97819.59;;;-10.43;90.26
68197;BME280;55019;49.382;11.358;2022-12-18T00:43:23;97823.69;;;-10.37;90.21
68197;BME280;55019;49.382;11.358;2022-12-18T00:45:48;97829.53;;;-10.38;90.47
68197;BME280;55019;49.382;11.358;2022-12-18T00:48:14;97826.13;;;-10.25;90.63
68197;BME280;55019;49.382;11.358;2022-12-18T00:50:39;97830.28;;;-10.27;90.30
68197;BME280;55019;49.382;11.358;2022-12-18T00:53:05;97818.69;;;-10.33;90.67
68197;BME280;55019;49.382;11.358;2022-12-18T00:55:30;97822.84;;;-10.32;91.04
68197;BME280;55019;49.382;11.358;2022-12-18T00:57:56;97812.81;;;-10.29;90.64
68197;BME280;55019;49.382;11.358;2022-12-18T01:00:21;97820.25;;;-10.20;90.81
68197;BME280;55019;49.382;11.358;2022-12-18T01:02:47;97817.81;;;-10.26;89.51
68197;BME280;55019;49.382;11.358;2022-12-18T01:05:13;97822.06;;;-10.40;89.14
68197;BME280;55019;49.382;11.358;2022-12-18T01:07:39;97822.91;;;-10.44;89.12
68197;BME280;55019;49.382;11.358;2022-12-18T01:10:06;97822.91;;;-10.47;89.17
68197;BME280;55019;49.382;11.358;2022-12-18T01:12:32;97822.13;;;-10.53;89.26
68197;BME280;55019;49.382;11.358;2022-12-18T01:14:57;97823.75;;;-10.42;88.81
68197;BME280;55019;49.382;11.358;2022-12-18T01:17:23;97811.28;;;-10.51;88.40
68197;BME280;55019;49.382;11.358;2022-12-18T01:19:48;97817.94;;;-10.53;88.60
68197;BME280;55019;49.382;11.358;2022-12-18T01:22:13;97831.22;;;-10.48;88.28
68197;BME280;55019;49.382;11.358;2022-12-18T01:24:39;97840.47;;;-10.62;88.19
68197;BME280;55019;49.382;11.358;2022-12-18T01:27:04;97850.47;;;-10.60;89.01
68197;BME280;55019;49.382;11.358;2022-12-18T01:29:30;97844.66;;;-10.67;88.55
68197;BME280;55019;49.382;11.358;2022-12-18T01:31:56;97854.66;;;-10.67;89.03
68197;BME280;55019;49.382;11.358;2022-12-18T01:34:22;97858.03;;;-10.77;88.59
68197;BME280;55019;49.382;11.358;2022-12-18T01:36:47;97850.59;;;-10.89;89.07
68197;BME280;55019;49.382;11.358;2022-12-18T01:39:14;97860.50;;;-10.78;89.04
68197;BME280;55019;49.382;11.358;2022-12-18T01:41:41;97857.94;;;-10.62;89.00
68197;BME280;55019;49.382;11.358;2022-12-18T01:50:03;97859.63;;;-10.67;87.67
68197;BME280;55019;49.382;11.358;2022-12-18T01:52:31;97859.66;;;-10.70;88.07
68197;BME280;55019;49.382;11.358;2022-12-18T01:54:57;97858.81;;;-10.67;88.77
68197;BME280;55019;49.382;11.358;2022-12-18T01:57:23;97858.81;;;-10.73;89.43
68197;BME280;55019;49.382;11.358;2022-12-18T01:59:52;97857.94;;;-10.62;89.55
68197;BME280;55019;49.382;11.358;2022-12-18T02:02:18;97868.72;;;-10.49;89.26
68197;BME280;55019;49.382;11.358;2022-12-18T02:04:45;97855.44;;;-10.56;89.55
68197;BME280;55019;49.382;11.358;2022-12-18T02:07:21;97858.72;;;-10.51;89.68
68197;BME280;55019;49.382;11.358;2022-12-18T02:10:11;97857.88;;;-10.50;89.78
68197;BME280;55019;49.382;11.358;2022-12-18T02:21:27;97862.94;;;-10.59;91.08
68197;BME280;55019;49.382;11.358;2022-12-18T02:26:56;97863.72;;;-10.51;91.37
68197;BME280;55019;49.382;11.358;2022-12-18T02:29:29;97866.16;;;-10.33;91.51
68197;BME280;55019;49.382;11.358;2022-12-18T02:32:00;97868.66;;;-10.33;91.53
68197;BME280;55019;49.382;11.358;2022-12-18T02:34:30;97857.75;;;-10.20;91.55
68197;BME280;55019;49.382;11.358;2022-12-18T02:36:57;97863.59;;;-10.24;90.76
68197;BME280;55019;49.382;11.358;2022-12-18T02:39:26;97853.56;;;-10.22;91.07
68197;BME280;55019;49.382;11.358;2022-12-18T02:41:52;97856.03;;;-10.15;90.84
68197;BME280;55019;49.382;11.358;2022-12-18T02:44:18;97836.84;;;-10.08;91.04
68197;BME280;55019;49.382;11.358;2022-12-18T02:46:46;97850.06;;;-9.94;91.78
68197;BME280;55019;49.382;11.358;2022-12-18T02:57:20;97864.56;;;-9.35;92.16
68197;BME280;55019;49.382;11.358;2022-12-18T03:02:35;97886.78;;;-9.02;92.78
68197;BME280;55019;49.382;11.358;2022-12-18T03:05:12;97885.03;;;-8.92;92.64
68197;BME280;55019;49.382;11.358;2022-12-18T03:07:44;97892.53;;;-8.89;92.42
68197;BME280;55019;49.382;11.358;2022-12-18T03:10:15;97893.97;;;-8.72;92.62
68197;BME280;55019;49.382;11.358;2022-12-18T03:12:47;97883.91;;;-8.67;92.28
68197;BME280;55019;49.382;11.358;2022-12-18T03:18:07;97876.31;;;-8.61;92.07
68197;BME280;55019;49.382;11.358;2022-12-18T03:20:35;97866.06;;;-8.43;92.79
68197;BME280;55019;49.382;11.358;2022-12-18T03:23:12;97864.47;;;-8.47;92.92
68197;BME280;55019;49.382;11.358;2022-12-18T03:25:42;97869.34;;;-8.36;92.76
68197;BME280;55019;49.382;11.358;2022-12-18T03:28:13;97860.94;;;-8.32;93.00
68197;BME280;55019;49.382;11.358;2022-12-18T03:30:41;97857.50;;;-8.25;93.25
68197;BME280;55019;49.382;11.358;2022-12-18T03:33:13;97854.19;;;-8.27;93.09
68197;BME280;55019;49.382;11.358;2022-12-18T03:35:43;97867.53;;;-8.25;93.33
68197;BME280;55019;49.382;11.358;2022-12-18T03:38:10;97869.06;;;-8.16;93.86
68197;BME280;55019;49.382;11.358;2022-12-18T03:40:58;97892.31;;;-8.07;93.61
68197;BME280;55019;49.382;11.358;2022-12-18T03:43:49;97880.41;;;-7.93;93.34
68197;BME280;55019;49.382;11.358;2022-12-18T03:46:26;97887.97;;;-7.94;93.74
68197;BME280;55019;49.382;11.358;2022-12-18T03:48:58;97882.78;;;-7.82;93.49
68197;BME280;55019;49.382;11.358;2022-12-18T03:51:52;97885.94;;;-7.71;93.64
68197;BME280;55019;49.382;11.358;2022-12-18T03:54:17;97886.88;;;-7.77;93.82
68197;BME280;55019;49.382;11.358;2022-12-18T03:56:46;97890.16;;;-7.72;94.25
68197;BME280;55019;49.382;11.358;2022-12-18T03:59:15;97884.19;;;-7.66;93.84
68197;BME280;55019;49.382;11.358;2022-12-18T04:01:46;97894.16;;;-7.60;93.87
68197;BME280;55019;49.382;11.358;2022-12-18T04:04:13;97900.09;;;-7.66;93.54
68197;BME280;55019;49.382;11.358;2022-12-18T04:06:41;97891.06;;;-7.76;93.48
68197;BME280;55019;49.382;11.358;2022-12-18T04:09:07;97890.97;;;-7.70;93.07
68197;BME280;55019;49.382;11.358;2022-12-18T04:11:33;97901.03;;;-7.74;92.97
68197;BME280;55019;49.382;11.358;2022-12-18T04:13:58;97903.66;;;-7.80;93.85
68197;BME280;55019;49.382;11.358;2022-12-18T04:16:25;97915.25;;;-7.72;93.18
68197;BME280;55019;49.382;11.358;2022-12-18T04:18:51;97902.69;;;-7.72;93.67
68197;BME280;55019;49.382;11.358;2022-12-18T04:21:16;97898.41;;;-7.64;93.50
68197;BME280;55019;49.382;11.358;2022-12-18T04:23:41;97902.59;;;-7.66;93.31
68197;BME280;55019;49.382;11.358;2022-12-18T04:26:07;97909.19;;;-7.59;93.09
68197;BME280;55019;49.382;11.358;2022-12-18T04:28:32;97915.84;;;-7.56;93.42
68197;BME280;55019;49.382;11.358;2022-12-18T04:30:57;97900.97;;;-7.68;93.55
68197;BME280;55019;49.382;11.358;2022-12-18T04:33:23;97903.31;;;-7.56;93.89
68197;BME280;55019;49.382;11.358;2022-12-18T04:35:48;97904.22;;;-7.60;93.99
68197;BME280;55019;49.382;11.358;2022-12-18T04:38:14;97914.06;;;-7.50;93.51
68197;BME280;55019;49.382;11.358;2022-12-18T04:40:39;97918.22;;;-7.49;93.22
68197;BME280;55019;49.382;11.358;2022-12-18T04:43:05;97924.19;;;-7.54;93.50
68197;BME280;55019;49.382;11.358;2022-12-18T04:45:31;97917.47;;;-7.54;93.65
68197;BME280;55019;49.382;11.358;2022-12-18T04:48:01;97927.41;;;-7.48;93.70
68197;BME280;55019;49.382;11.358;2022-12-18T04:50:27;97923.19;;;-7.44;93.35
68197;BME280;55019;49.382;11.358;2022-12-18T04:52:52;97912.34;;;-7.48;93.60
68197;BME280;55019;49.382;11.358;2022-12-18T04:55:18;97913.22;;;-7.49;93.64
68197;BME280;55019;49.382;11.358;2022-12-18T04:57:43;97916.53;;;-7.47;93.67
68197;BME280;55019;49.382;11.358;2022-12-18T05:00:09;97914.88;;;-7.48;93.60
68197;BME280;55019;49.382;11.358;2022-12-18T05:02:35;97919.03;;;-7.45;93.66
68197;BME280;55019;49.382;11.358;2022-12-18T05:05:00;97925.00;;;-7.52;93.62
68197;BME280;55019;49.382;11.358;2022-12-18T05:07:26;97919.84;;;-7.45;92.95
68197;BME280;55019;49.382;11.358;2022-12-18T05:09:51;97921.53;;;-7.47;92.91
68197;BME280;55019;49.382;11.358;2022-12-18T05:12:16;97934.16;;;-7.50;92.91
68197;BME280;55019;49.382;11.358;2022-12-18T05:14:42;97920.75;;;-7.49;92.33
68197;BME280;55019;49.382;11.358;2022-12-18T05:17:07;97924.97;;;-7.51;92.73
68197;BME280;55019;49.382;11.358;2022-12-18T05:19:33;97918.31;;;-7.53;92.55
68197;BME280;55019;49.382;11.358;2022-12-18T05:21:58;97921.53;;;-7.47;92.28
68197;BME280;55019;49.382;11.358;2022-12-18T05:24:24;97917.31;;;-7.43;92.27
68197;BME280;55019;49.382;11.358;2022-12-18T05:26:50;97919.06;;;-7.48;92.45
68197;BME280;55019;49.382;11.358;2022-12-18T05:29:15;97919.94;;;-7.49;93.04
68197;BME280;55019;49.382;11.358;2022-12-18T05:31:40;97924.06;;;-7.47;93.21
68197;BME280;55019;49.382;11.358;2022-12-18T05:34:06;97930.91;;;-7.56;92.98
68197;BME280;55019;49.382;11.358;2022-12-18T05:36:31;97920.94;;;-7.61;93.96
68197;BME280;55019;49.382;11.358;2022-12-18T05:38:57;97924.16;;;-7.51;94.24
68197;BME280;55019;49.382;11.358;2022-12-18T05:41:22;97917.44;;;-7.51;94.01
68197;BME280;55019;49.382;11.358;2022-12-18T05:43:47;97914.88;;;-7.48;93.61
68197;BME280;55019;49.382;11.358;2022-12-18T05:46:16;97914.75;;;-7.39;93.77
68197;BME280;55019;49.382;11.358;2022-12-18T05:48:45;97923.16;;;-7.43;94.25
68197;BME280;55019;49.382;11.358;2022-12-18T05:51:13;97920.69;;;-7.44;93.97
68197;BME280;55019;49.382;11.358;2022-12-18T05:53:40;97921.44;;;-7.41;93.90
68197;BME280;55019;49.382;11.358;2022-12-18T05:56:08;97917.13;;;-7.31;94.18
68197;BME280;55019;49.382;11.358;2022-12-18T05:58:34;97915.47;;;-7.32;94.52
68197;BME280;55019;49.382;11.358;2022-12-18T06:01:10;97917.84;;;-7.23;94.14
68197;BME280;55019;49.382;11.358;2022-12-18T06:03:36;97919.53;;;-7.24;94.17
68197;BME280;55019;49.382;11.358;2022-12-18T06:06:02;97925.25;;;-7.17;94.45
68197;BME280;55019;49.382;11.358;2022-12-18T06:08:27;97930.00;;;-7.01;94.05
68197;BME280;55019;49.382;11.358;2022-12-18T06:10:53;97937.66;;;-7.07;94.49
68197;BME280;55019;49.382;11.358;2022-12-18T06:13:19;97944.28;;;-7.03;94.54
68197;BME280;55019;49.382;11.358;2022-12-18T06:15:45;97940.81;;;-6.96;93.91
68197;BME280;55019;49.382;11.358;2022-12-18T06:18:10;97945.19;;;-7.05;94.70
68197;BME280;55019;49.382;11.358;2022-12-18T06:20:36;97934.97;;;-6.97;94.83
68197;BME280;55019;49.382;11.358;2022-12-18T06:23:02;97939.22;;;-7.00;94.39
68197;BME280;55019;49.382;11.358;2022-12-18T06:25:27;97944.22;;;-7.00;94.87
68197;BME280;55019;49.382;11.358;2022-12-18T06:27:53;97947.50;;;-6.95;94.53
68197;BME280;55019;49.382;11.358;2022-12-18T06:30:18;97958.44;;;-6.99;94.80
68197;BME280;55019;49.382;11.358;2022-12-18T06:32:44;97961.69;;;-6.93;94.78
68197;BME280;55019;49.382;11.358;2022-12-18T06:35:09;97962.41;;;-6.85;94.60
68197;BME280;55019;49.382;11.358;2022-12-18T06:37:35;97944.69;;;-6.79;94.49
68197;BME280;55019;49.382;11.358;2022-12-18T06:40:00;97946.47;;;-6.84;94.30
68197;BME280;55019;49.382;11.358;2022-12-18T06:42:26;97951.44;;;-6.81;94.56
68197;BME280;55019;49.382;11.358;2022-12-18T06:44:51;97953.91;;;-6.78;94.74
68197;BME280;55019;49.382;11.358;2022-12-18T06:47:17;97944.75;;;-6.80;94.71
68197;BME280;55019;49.382;11.358;2022-12-18T06:49:42;97936.97;;;-6.68;94.48
68197;BME280;55019;49.382;11.358;2022-12-18T06:52:08;97952.88;;;-6.66;94.38
68197;BME280;55019;49.382;11.358;2022-12-18T06:54:33;97953.50;;;-6.55;94.03
68197;BME280;55019;49.382;11.358;2022-12-18T06:56:59;97956.94;;;-6.59;93.53
68197;BME280;55019;49.382;11.358;2022-12-18T06:59:24;97958.75;;;-6.67;93.68
68197;BME280;55019;49.382;11.358;2022-12-18T07:01:50;97963.59;;;-6.57;93.81
68197;BME280;55019;49.382;11.358;2022-12-18T07:04:15;97960.34;;;-6.63;93.97
68197;BME280;55019;49.382;11.358;2022-12-18T07:06:41;97962.06;;;-6.65;94.04
68197;BME280;55019;49.382;11.358;2022-12-18T07:09:06;97955.38;;;-6.66;94.41
68197;BME280;55019;49.382;11.358;2022-12-18T07:11:34;97959.66;;;-6.71;94.50
68197;BME280;55019;49.382;11.358;2022-12-18T07:14:00;97945.34;;;-6.68;94.31
68197;BME280;55019;49.382;11.358;2022-12-18T07:16:26;97963.66;;;-6.61;94.16
68197;BME280;55019;49.382;11.358;2022-12-18T07:18:54;97960.25;;;-6.57;93.98
68197;BME280;55019;49.382;11.358;2022-12-18T07:21:20;97960.34;;;-6.63;94.54
68197;BME280;55019;49.382;11.358;2022-12-18T07:23:46;97962.78;;;-6.59;94.56
68197;BME280;55019;49.382;11.358;2022-12-18T07:26:14;97959.50;;;-6.62;94.76
68197;BME280;55019;49.382;11.358;2022-12-18T07:28:41;97973.75;;;-6.63;94.68
68197;BME280;55019;49.382;11.358;2022-12-18T07:31:12;97967.03;;;-6.61;94.90
68197;BME280;55019;49.382;11.358;2022-12-18T07:33:37;97966.88;;;-6.53;94.62
68197;BME280;55019;49.382;11.358;2022-12-18T07:36:05;97960.25;;;-6.57;94.77
68197;BME280;55019;49.382;11.358;2022-12-18T07:38:32;97960.91;;;-6.48;94.53
68197;BME280;55019;49.382;11.358;2022-12-18T07:41:06;97957.44;;;-6.42;94.15
68197;BME280;55019;49.382;11.358;2022-12-18T07:43:33;97974.16;;;-6.40;94.43
68197;BME280;55019;49.382;11.358;2022-12-18T07:45:58;97966.59;;;-6.38;93.96
68197;BME280;55019;49.382;11.358;2022-12-18T07:48:24;97978.28;;;-6.34;93.98
68197;BME280;55019;49.382;11.358;2022-12-18T07:50:49;97976.31;;;-6.20;93.86
68197;BME280;55019;49.382;11.358;2022-12-18T07:53:14;97984.47;;;-6.09;93.13
68197;BME280;55019;49.382;11.358;2022-12-18T07:55:41;97986.25;;;-6.14;93.06
68197;BME280;55019;49.382;11.358;2022-12-18T07:58:07;97982.69;;;-6.04;92.60
68197;BME280;55019;49.382;11.358;2022-12-18T08:00:33;97985.88;;;-5.96;92.46
68197;BME280;55019;49.382;11.358;2022-12-18T08:02:58;98000.88;;;-5.90;92.19
68197;BME280;55019;49.382;11.358;2022-12-18T08:05:24;98000.81;;;-5.87;91.41
68197;BME280;55019;49.382;11.358;2022-12-18T08:07:49;97994.25;;;-5.94;91.57
68197;BME280;55019;49.382;11.358;2022-12-18T08:10:15;97998.41;;;-5.92;91.71
68197;BME280;55019;49.382;11.358;2022-12-18T08:12:40;97995.75;;;-5.84;91.19
68197;BME280;55019;49.382;11.358;2022-12-18T08:15:06;98001.56;;;-5.82;90.84
68197;BME280;55019;49.382;11.358;2022-12-18T08:17:31;97993.78;;;-5.73;90.33
68197;BME280;55019;49.382;11.358;2022-12-18T08:19:57;97990.03;;;-5.94;90.98
68197;BME280;55019;49.382;11.358;2022-12-18T08:22:22;97994.03;;;-5.84;90.45
68197;BME280;55019;49.382;11.358;2022-12-18T08:24:48;97987.38;;;-5.86;90.63
68197;BME280;55019;49.382;11.358;2022-12-18T08:27:13;97997.03;;;-5.68;90.51
68197;BME280;55019;49.382;11.358;2022-12-18T08:29:39;97987.56;;;-5.56;89.92
68197;BME280;55019;49.382;11.358;2022-12-18T08:32:04;97999.81;;;-5.43;88.74
68197;BME280;55019;49.382;11.358;2022-12-18T08:34:29;98013.53;;;-5.56;89.98
68197;BME280;55019;49.382;11.358;2022-12-18T08:36:55;98006.66;;;-5.48;89.57
68197;BME280;55019;49.382;11.358;2022-12-18T08:39:20;98014.06;;;-5.40;89.14
68197;BME280;55019;49.382;11.358;2022-12-18T08:41:46;98024.78;;;-5.31;88.59
68197;BME280;55019;49.382;11.358;2022-12-18T08:44:31;98010.19;;;-5.17;87.90
68197;BME280;55019;49.382;11.358;2022-12-18T08:47:03;98011.38;;;-4.96;87.54
68197;BME280;55019;49.382;11.358;2022-12-18T08:49:28;98010.75;;;-5.06;86.30
68197;BME280;55019;49.382;11.358;2022-12-18T08:51:55;98012.84;;;-4.88;87.32
68197;BME280;55019;49.382;11.358;2022-12-18T08:54:22;98019.16;;;-4.70;85.85
68197;BME280;55019;49.382;11.358;2022-12-18T08:56:48;98018.66;;;-4.51;85.18
68197;BME280;55019;49.382;11.358;2022-12-18T08:59:17;98011.09;;;-4.51;85.46
68197;BME280;55019;49.382;11.358;2022-12-18T09:02:27;98016.19;;;-3.90;82.22
68197;BME280;55019;49.382;11.358;2022-12-18T09:04:53;97998.25;;;-2.96;77.74
68197;BME280;55019;49.382;11.358;2022-12-18T09:07:18;97994.31;;;-2.53;75.81
68197;BME280;55019;49.382;11.358;2022-12-18T09:09:43;98003.63;;;-2.53;74.62
68197;BME280;55019;49.382;11.358;2022-12-18T09:12:09;98007.78;;;-3.31;76.09
68197;BME280;55019;49.382;11.358;2022-12-18T09:14:35;98015.00;;;-3.48;77.18
68197;BME280;55019;49.382;11.358;2022-12-18T09:17:00;98004.75;;;-3.71;78.66
68197;BME280;55019;49.382;11.358;2022-12-18T09:19:29;98006.34;;;-4.29;80.33
68197;BME280;55019;49.382;11.358;2022-12-18T09:21:55;97998.97;;;-4.70;82.11
68197;BME280;55019;49.382;11.358;2022-12-18T09:24:20;98003.81;;;-4.96;83.04
68197;BME280;55019;49.382;11.358;2022-12-18T09:26:46;98001.84;;;-4.84;84.07
68197;BME280;55019;49.382;11.358;2022-12-18T09:29:11;98004.94;;;-4.73;83.63
68197;BME280;55019;49.382;11.358;2022-12-18T09:31:37;98008.13;;;-4.33;82.58
68197;BME280;55019;49.382;11.358;2022-12-18T09:34:06;98010.25;;;-4.18;81.67
68197;BME280;55019;49.382;11.358;2022-12-18T09:36:32;98000.72;;;-4.09;80.36
68197;BME280;55019;49.382;11.358;2022-12-18T09:38:57;98006.59;;;-4.07;80.54
68197;BME280;55019;49.382;11.358;2022-12-18T09:41:43;97999.31;;;-4.19;81.41
68197;BME280;55019;49.382;11.358;2022-12-18T09:44:35;97997.91;;;-3.98;80.74
68197;BME280;55019;49.382;11.358;2022-12-18T09:47:28;97979.88;;;-4.15;80.75
68197;BME280;55019;49.382;11.358;2022-12-18T09:49:58;97982.25;;;-4.11;80.47
68197;BME280;55019;49.382;11.358;2022-12-18T09:52:37;97968.56;;;-4.32;81.56
68197;BME280;55019;49.382;11.358;2022-12-18T09:55:12;97970.28;;;-4.03;79.87
68197;BME280;55019;49.382;11.358;2022-12-18T09:57:52;97978.66;;;-4.31;79.46
68197;BME280;55019;49.382;11.358;2022-12-18T10:00:22;97974.59;;;-4.70;80.96
68197;BME280;55019;49.382;11.358;2022-12-18T10:02:50;97974.00;;;-4.79;81.82
68197;BME280;55019;49.382;11.358;2022-12-18T10:05:31;97965.88;;;-4.90;82.67
68197;BME280;55019;49.382;11.358;2022-12-18T10:14:43;97979.03;;;-3.27;75.41
68197;BME280;55019;49.382;11.358;2022-12-18T10:17:42;97983.31;;;-3.31;75.77
68197;BME280;55019;49.382;11.358;2022-12-18T10:20:27;97956.38;;;-3.04;74.57
68197;BME280;55019;49.382;11.358;2022-12-18T10:23:04;97969.25;;;-3.39;74.86
68197;BME280;55019;49.382;11.358;2022-12-18T10:28:12;97961.34;;;-3.56;76.63
68197;BME280;55019;49.382;11.358;2022-12-18T10:30:39;97963.75;;;-3.52;75.73
68197;BME280;55019;49.382;11.358;2022-12-18T10:33:04;97970.72;;;-3.60;76.09
68197;BME280;55019;49.382;11.358;2022-12-18T10:35:30;97953.50;;;-3.47;76.09
68197;BME280;55019;49.382;11.358;2022-12-18T10:43:15;97935.47;;;-1.43;68.36
68197;BME280;55019;49.382;11.358;2022-12-18T10:45:59;97948.47;;;0.12;63.56
68197;BME280;55019;49.382;11.358;2022-12-18T10:48:24;97944.97;;;1.05;59.65
68197;BME280;55019;49.382;11.358;2022-12-18T10:50:51;97945.44;;;1.64;57.13
68197;BME280;55019;49.382;11.358;2022-12-18T10:53:28;97946.50;;;1.43;58.31
68197;BME280;55019;49.382;11.358;2022-12-18T10:55:58;97948.38;;;2.06;55.66
68197;BME280;55019;49.382;11.358;2022-12-18T10:58:34;97956.88;;;1.05;57.75
68197;BME280;55019;49.382;11.358;2022-12-18T11:01:10;97966.13;;;0.70;58.40
68197;BME280;55019;49.382;11.358;2022-12-18T11:03:59;97950.00;;;2.39;54.33
68197;BME280;55019;49.382;11.358;2022-12-18T11:06:25;97959.66;;;1.17;56.36
68197;BME280;55019;49.382;11.358;2022-12-18T11:09:05;97972.22;;;2.05;55.88
68197;BME280;55019;49.382;11.358;2022-12-18T11:11:32;97958.28;;;4.36;49.91
68197;BME280;55019;49.382;11.358;2022-12-18T11:14:12;97951.19;;;5.85;45.08
68197;BME280;55019;49.382;11.358;2022-12-18T11:16:46;97952.13;;;5.84;44.37
68197;BME280;55019;49.382;11.358;2022-12-18T11:19:39;97947.50;;;5.12;45.20
68197;BME280;55019;49.382;11.358;2022-12-18T11:22:32;97952.09;;;5.07;46.04
68197;BME280;55019;49.382;11.358;2022-12-18T11:27:25;97939.94;;;5.88;43.10
68197;BME280;55019;49.382;11.358;2022-12-18T11:29:51;97937.84;;;5.29;44.81
68197;BME280;55019;49.382;11.358;2022-12-18T11:32:37;97937.72;;;6.57;40.81
68197;BME280;55019;49.382;11.358;2022-12-18T11:37:48;97933.00;;;7.22;39.72
68197;BME280;55019;49.382;11.358;2022-12-18T11:40:30;97939.16;;;7.89;38.83
68197;BME280;55019;49.382;11.358;2022-12-18T11:45:34;97937.03;;;7.14;39.74
68197;BME280;55019;49.382;11.358;2022-12-18T11:48:09;97939.22;;;4.68;44.81
68197;BME280;55019;49.382;11.358;2022-12-18T11:50:44;97924.28;;;7.12;40.95
68197;BME280;55019;49.382;11.358;2022-12-18T11:53:12;97916.66;;;7.23;39.17
68197;BME280;55019;49.382;11.358;2022-12-18T11:56:04;97930.22;;;5.66;43.11
68197;BME280;55019;49.382;11.358;2022-12-18T12:06:42;97899.25;;;5.69;43.54
68197;BME280;55019;49.382;11.358;2022-12-18T12:09:14;97889.72;;;6.21;41.87
68197;BME280;55019;49.382;11.358;2022-12-18T12:11:58;97881.19;;;4.81;44.82
68197;BME280;55019;49.382;11.358;2022-12-18T12:14:56;97900.84;;;3.56;47.79
68197;BME280;55019;49.382;11.358;2022-12-18T12:17:42;97900.56;;;2.73;49.53
68197;BME280;55019;49.382;11.358;2022-12-18T12:22:45;97901.81;;;2.02;51.94
68197;BME280;55019;49.382;11.358;2022-12-18T12:25:21;97892.91;;;2.26;52.78
68197;BME280;55019;49.382;11.358;2022-12-18T12:39:18;97880.94;;;1.96;54.32
68197;BME280;55019;49.382;11.358;2022-12-18T12:41:47;97877.19;;;2.65;52.09
68197;BME280;55019;49.382;11.358;2022-12-18T12:44:45;97883.69;;;1.76;53.95
68197;BME280;55019;49.382;11.358;2022-12-18T12:47:31;97889.50;;;0.59;57.60
68197;BME280;55019;49.382;11.358;2022-12-18T12:49:59;97892.41;;;0.52;58.31
68197;BME280;55019;49.382;11.358;2022-12-18T12:52:36;97900.91;;;-0.23;61.19
68197;BME280;55019;49.382;11.358;2022-12-18T12:55:12;97894.66;;;-0.16;61.01
68197;BME280;55019;49.382;11.358;2022-12-18T12:57:42;97892.13;;;-0.74;63.28
68197;BME280;55019;49.382;11.358;2022-12-18T13:00:15;97891.69;;;-1.25;65.04
68197;BME280;55019;49.382;11.358;2022-12-18T13:03:01;97888.38;;;-1.48;66.40
68197;BME280;55019;49.382;11.358;2022-12-18T13:08:53;97886.84;;;-1.97;68.58
68197;BME280;55019;49.382;11.358;2022-12-18T13:11:35;97889.34;;;-2.43;70.70
68197;BME280;55019;49.382;11.358;2022-12-18T13:14:26;97878.50;;;-2.22;70.07
68197;BME280;55019;49.382;11.358;2022-12-18T13:19:50;97889.31;;;-2.41;72.01
68197;BME280;55019;49.382;11.358;2022-12-18T13:22:22;97892.47;;;-2.84;72.81
68197;BME280;55019;49.382;11.358;2022-12-18T13:24:49;97895.69;;;-2.79;73.17
68197;BME280;55019;49.382;11.358;2022-12-18T13:38:33;97864.59;;;-2.58;72.28
68197;BME280;55019;49.382;11.358;2022-12-18T13:41:02;97876.22;;;-2.77;72.61
68197;BME280;55019;49.382;11.358;2022-12-18T13:49:05;97890.25;;;-2.92;73.90
68197;BME280;55019;49.382;11.358;2022-12-18T13:51:46;97890.53;;;-3.01;74.42
68197;BME280;55019;49.382;11.358;2022-12-18T13:56:48;97881.91;;;-3.20;75.02
68197;BME280;55019;49.382;11.358;2022-12-18T14:02:17;97872.16;;;-3.32;75.98
68197;BME280;55019;49.382;11.358;2022-12-18T14:04:47;97862.06;;;-3.32;75.52
68197;BME280;55019;49.382;11.358;2022-12-18T14:09:50;97869.78;;;-3.90;77.82
68197;BME280;55019;49.382;11.358;2022-12-18T14:12:18;97872.06;;;-3.83;78.43
68197;BME280;55019;49.382;11.358;2022-12-18T14:15:06;97873.31;;;-3.96;78.87
68197;BME280;55019;49.382;11.358;2022-12-18T14:17:38;97863.69;;;-4.12;78.94
68197;BME280;55019;49.382;11.358;2022-12-18T14:20:13;97855.44;;;-4.17;79.32
68197;BME280;55019;49.382;11.358;2022-12-18T14:22:43;97853.34;;;-4.32;80.18
68197;BME280;55019;49.382;11.358;2022-12-18T14:27:47;97860.09;;;-4.32;80.69
68197;BME280;55019;49.382;11.358;2022-12-18T14:30:27;97852.91;;;-4.46;81.04
68197;BME280;55019;49.382;11.358;2022-12-18T14:33:11;97853.06;;;-4.52;81.27
68197;BME280;55019;49.382;11.358;2022-12-18T14:35:42;97852.56;;;-4.64;82.09
68197;BME280;55019;49.382;11.358;2022-12-18T14:38:37;97871.00;;;-4.62;82.20
68197;BME280;55019;49.382;11.358;2022-12-18T14:41:09;97869.34;;;-4.63;82.36
68197;BME280;55019;49.382;11.358;2022-12-18T14:43:37;97874.19;;;-4.56;82.05
68197;BME280;55019;49.382;11.358;2022-12-18T14:46:05;97859.47;;;-4.71;82.51
68197;BME280;55019;49.382;11.358;2022-12-18T14:48:50;97864.47;;;-4.69;82.13
68197;BME280;55019;49.382;11.358;2022-12-18T14:51:22;97872.50;;;-4.55;81.83
68197;BME280;55019;49.382;11.358;2022-12-18T14:53:53;97873.66;;;-4.67;81.86